Airfield :
LOGIN :

Register | Disclaimer

   EN    FR    IT 

 










Legend :    VFR   Marginal VFR   IFR   Intensive IFR   Very Intensive IFR
Visi :
Ceiling :
>= 8 km
>= 3000ft
5 to 8 km
1000 to 3000 ft
1500m to 5 km
500 to 1000 ft
800 to 1500m
200 to 500 ft
< 800m
< 200 ft
Symbols :   Thunderstorms  Fog  Heavy snow  Heavy precipitations  Wind > 20 kt
SIGMETs :     Misc.  Thunderstorms  Icing  Turbulence  Mountain Waves  Volcanic Ashes






- Airport Elevation : 1 ft


EGCK - Caernarfon

CURRENT METAR :
  • 241250Z 25006KT 220V280 9999 FEW032 09/04 Q0995

EXPIRED METARs :
  • 241220Z 27005KT 9999 SCT030 09/04 Q0995
  • 241150Z 27004KT 230V300 9999 FEW030 08/04 Q0995
  • 241120Z 25005KT 190V270 9999 FEW019 09/05 Q0994
  • 241050Z VRB01KT 9999 SCT017 08/03 Q0994
  • 241020Z VRB02KT 9999 SCT014 08/05 Q0994
  • 240950Z VRB02KT 9999 FEW020 SCT039 06/04 Q0994
  • 240920Z 06004KT 9999 FEW010 SCT028 06/04 Q0993
  • 240850Z AUTO 03003KT 340V070 9999 BKN020/// OVC046/// 05/04 Q0993
  • 240820Z AUTO VRB02KT 9999 BKN042/// 04/03 Q0992

TAF TAF EGCK
Valid from the 24 at 12:00 until the 24 at 21:00 UTC


241057Z 2412/2421 VRB04KT 9999 SCT022
PROB30
TEMPO 2412/2415 4000 +SHRA BKN008



MET'MAP, your aeronautical weather chart ! - Copyright ORBIFLY December 2007 - Disclaimer

ORBIFLY MET'MAP TEAM :

Programming & Development : Alexandra Zaïnal
Original concept : Baudouin d'Aumeries
Technical & hardware support : Manuel Goepfert
Assistance : Marc-Olivier Méhu




SOURCES & CREDITS :

   NOAA